Weather at Lieutenant Cesar Base Air Base Heliport

Public forecast

Using degrees Celsius for public forecast. Weather courtesy of forecast.io.

Closest aviation weather report (METAR) to Lieutenant Cesar Base Air Base Heliport

Closest report is Diosdado Macapagal International Airport, 12.9 nm (23.8 km) NNE. Retrieved 2021/01/20 06:00 UTC (10 minutes ago):

RPLC 200600Z 02008KT 9999 SCT020 OVC100 30/21 Q1009 NOSIG RMK A2980

Closest aviation forecast (TAF) to Lieutenant Cesar Base Air Base Heliport

Closest forecast is Diosdado Macapagal International Airport, 12.9 nm (23.8 km) NNE. Retrieved 2021/01/20 06:03 UTC (7 minutes ago):

TAF RPLC 200500Z 2006/2112 36006KT 9999 SCT020 BKN100 TX30/2006Z TN24/2021Z TEMPO 2006/2012 32008KT 7000 -SHRA SCT020 BKN100